Search for airport 
image banner adimage banner adimage banner ad
image banner ad

0CN1 - Fiorini Ranch

Located in Delhi, United States

ICAO - 0CN1, IATA -

Data provided by Airmate  

General information

Coordinates: N37°27'8" W120°45'53"
Elevation is 140 feet MSL.
 
View others Airports in California

Operational data

Special qualification required
Current time UTC:
Current local time:
Weather at : KMER - Castle ( 19 km )
METAR: KMER 221345Z 33008KT 10SM SKC 16/16 A2990
TAF: KMER 221120Z 2212/2312 33009KT P6SM SKC AMD NOT SKED
View NOTAMs / SUP AIP / TFR affecting this airport [VIEW]
Communications frequencies: [VIEW]

Runways:

RWY identifierQFULength (ft)Width (ft)SurfaceLDA (ft)
16222980ASPH
34222980ASPH

Airport contact information

Address: Delhi United States

Satellite view of 0CN1